Saturday, October 20, 2018, 10:30 PM EDT
Back to Local

KMQE, Milton Blue Hill Observ

Location: Milton, MA, United States Lat: 42.217
Local Time: 10:30 PM EDT ( 2:30 GMT) Lon: -71.117
Time Zone: US/Eastern Elev: 629 ft

Show me the last for .
Show Decoded

2018-10-20 21:56 METAR KMQE 210156Z AUTO 25009KT 08/06 A2957 RMK AO1 SLP025 T00830056 =
2018-10-20 20:56 METAR KMQE 210056Z AUTO 25009KT 09/06 A2957 RMK AO1 SLP024 T00890056 =
2018-10-20 19:56 METAR KMQE 202356Z AUTO 25009KT 11/06 A2957 RMK AO1 SLP025 T01060056 10156 20106
                 51007 =
2018-10-20 18:56 METAR KMQE 202256Z AUTO 23007KT 12/06 A2957 RMK AO1 SLP023 T01170056 =
2018-10-20 17:56 METAR KMQE 202156Z AUTO 30008KT 12/07 A2956 RMK AO1 SLP018 T01220067 =
2018-10-20 16:56 METAR KMQE 202056Z AUTO 26010KT 14/07 A2955 RMK AO1 SLP016 T01440072 56010 =
2018-10-20 15:56 METAR KMQE 201956Z AUTO 26010G17KT 14/07 A2956 RMK AO1 SLP018 T01440072 =
2018-10-20 14:56 METAR KMQE 201856Z AUTO 27012KT 15/07 A2957 RMK AO1 SLP023 T01500072 =
2018-10-20 13:56 METAR KMQE 201756Z AUTO 24011G19KT 16/08 A2958 RMK AO1 SLP026 T01560083 10167
                 20117 58020 =
2018-10-20 12:56 METAR KMQE 201656Z AUTO 25013G22KT 16/09 A2961 RMK AO1 PK WND 25027/1619 SLP037
                 T01560089 =
2018-10-20 11:56 METAR KMQE 201556Z AUTO 25014G26KT 13/09 A2963 RMK AO1 PK WND 25028/1538 SLP045
                 T01330089 =
2018-10-20 10:56 METAR KMQE 201456Z AUTO 23016G28KT 13/09 A2964 RMK AO1 PK WND 27028/1448 SLP048
                 T01330094 58009 =
2018-10-20 09:56 METAR KMQE 201356Z AUTO 22015G25KT 12/10 A2967 RMK AO1 SLP058 T01170100 =
2018-10-20 08:56 METAR KMQE 201256Z AUTO 21012G26KT 12/09 A2967 RMK AO1 PK WND 22026/1251 SLP059
                 T01220089 =
2018-10-20 07:56 METAR KMQE 201156Z AUTO 21016G24KT 12/08 A2967 RMK AO1 PK WND 21026/1134 SLP058
                 T01220083 10128 20106 55014 =
2018-10-20 06:56 METAR KMQE 201056Z AUTO 20021G30KT 12/08 A2966 RMK AO1 PK WND 23032/1044 SLP054
                 T01220078 =
2018-10-20 05:56 METAR KMQE 200956Z AUTO 21014G23KT 12/08 A2969 RMK AO1 SLP066 T01220078 =
2018-10-20 04:56 METAR KMQE 200856Z AUTO 20018G27KT 12/07 A2971 RMK AO1 PK WND 22029/0835 SLP071
                 T01220072 56031 =
2018-10-20 03:56 METAR KMQE 200756Z AUTO 20016G27KT 12/07 A2974 RMK AO1 PK WND 20029/0730 SLP081
                 T01220072 =
2018-10-20 02:56 METAR KMQE 200656Z AUTO 20017G26KT 11/08 A2977 RMK AO1 PK WND 19026/0653 SLP092
                 T01110083 =
2018-10-20 01:56 METAR KMQE 200556Z AUTO 19015KT 11/07 A2980 RMK AO1 SLP103 T01060072 10106 20100
                 58029 =
2018-10-20 00:56 METAR KMQE 200456Z AUTO 21014KT 10/06 A2985 RMK AO1 SLP119 T01000061 401501006 =
2018-10-19 23:56 METAR KMQE 200356Z AUTO 21015G23KT 10/05 A2986 RMK AO1 PK WND 21031/0327 SLP123
                 T01000050 =
2018-10-19 22:56 METAR KMQE 200256Z AUTO 21019G25KT 10/04 A2989 RMK AO1 SLP135 T01000044 56020 =

Support USWX by starting your Amazon purchase here.